Terminal Aerodrome Forecast
Issued by NWS

Home | Current Version | Previous Version | Text Only | Print | Product List | Glossary On
Versions: 1 2 3 4 5 6 7 8 9 10 11 12 13 14 15 16 17 18 19 20 21 22 23 24 25 26 27 28 29 30 31 32 33 34 35 36 37 38 39 40 41 42 43 44 45 46 47 48 49 50
000
FTUS43 KICT 172336
TAFGBD
TAF
KGBD 172336Z 1800/1824 VRB05KT 1/4SM FZFG OVC002
     FM181300 14015KT 1/2SM FG OVC006
     FM181900 08009KT 3SM -RA VCSH OVC009
     FM182100 03010KT 2SM -SN OVC004
      AMD LTD TO CLD VIS AND WIND=

USA.gov is the U.S. government's official web portal to all federal, state and local government web resources and services.